createdAt,value
2017-06-21T00:00:56.374Z,6.60
2017-06-21T00:03:24.765Z,9.00
2017-06-21T00:05:53.168Z,7.50
2017-06-21T00:08:21.571Z,8.07
2017-06-21T00:10:49.960Z,8.30
2017-06-21T00:13:18.367Z,7.73
2017-06-21T00:15:46.769Z,7.90
2017-06-21T00:18:15.162Z,6.93
2017-06-21T00:20:43.576Z,8.63
2017-06-21T00:23:11.969Z,7.90
2017-06-21T00:25:40.390Z,8.10
2017-06-21T00:28:08.776Z,8.37
2017-06-21T00:30:37.174Z,7.70
2017-06-21T00:33:05.568Z,7.70
2017-06-21T00:35:33.956Z,7.53
2017-06-21T00:38:03.142Z,8.33
2017-06-21T00:40:32.312Z,7.80
2017-06-21T00:43:00.710Z,9.10
2017-06-21T00:45:29.129Z,7.90
2017-06-21T00:47:57.526Z,8.10
2017-06-21T00:50:25.929Z,7.30
2017-06-21T00:52:54.320Z,8.23
2017-06-21T00:55:22.701Z,7.70
2017-06-21T00:57:51.121Z,8.90
2017-06-21T01:00:19.515Z,7.90
2017-06-21T01:02:47.944Z,7.97
2017-06-21T01:05:16.324Z,7.40
2017-06-21T01:07:44.697Z,7.27
2017-06-21T01:10:13.102Z,7.27
2017-06-21T01:12:41.491Z,8.20
2017-06-21T01:15:09.927Z,8.07
2017-06-21T01:17:38.315Z,7.20
2017-06-21T01:20:06.704Z,7.40
2017-06-21T01:22:35.229Z,7.27
2017-06-21T01:25:03.616Z,8.43
2017-06-21T01:27:32.025Z,7.00
2017-06-21T01:30:00.410Z,8.50
2017-06-21T01:32:28.785Z,7.40
2017-06-21T01:34:57.177Z,7.30
2017-06-21T01:37:25.579Z,7.90
2017-06-21T01:39:53.986Z,7.33
2017-06-21T01:42:22.373Z,7.20
2017-06-21T01:44:50.763Z,7.10
2017-06-21T01:47:19.153Z,7.43
2017-06-21T01:49:47.194Z,8.00
2017-06-21T01:52:15.613Z,7.10
2017-06-21T01:54:44.422Z,7.20
2017-06-21T01:57:12.462Z,7.83
2017-06-21T01:59:41.636Z,7.00
2017-06-21T02:02:10.025Z,9.27
2017-06-21T02:04:38.429Z,8.10
2017-06-21T02:07:07.584Z,8.27
2017-06-21T02:09:35.973Z,7.93
2017-06-21T02:12:04.378Z,6.70
2017-06-21T02:14:33.541Z,6.87
2017-06-21T02:17:01.965Z,7.40
2017-06-21T02:19:30.349Z,7.00
2017-06-21T02:21:58.729Z,6.90
2017-06-21T02:24:27.127Z,7.60
2017-06-21T02:26:55.528Z,7.10
2017-06-21T02:29:23.985Z,7.30
2017-06-21T02:31:52.390Z,6.73
2017-06-21T02:34:20.774Z,6.60
2017-06-21T02:36:49.178Z,7.50
2017-06-21T02:39:18.337Z,6.60
2017-06-21T02:41:46.741Z,7.03
2017-06-21T02:44:15.147Z,6.17
2017-06-21T02:46:43.538Z,6.33
2017-06-21T02:49:11.970Z,6.67
2017-06-21T02:51:40.406Z,5.93
2017-06-21T02:54:08.808Z,7.17
2017-06-21T02:56:37.206Z,5.33
2017-06-21T02:59:05.599Z,5.67
2017-06-21T03:01:34.761Z,5.47
2017-06-21T03:04:03.158Z,5.30
2017-06-21T03:06:31.558Z,5.63
2017-06-21T03:09:00.718Z,5.43
2017-06-21T03:11:29.123Z,5.93
2017-06-21T03:13:58.300Z,6.27
2017-06-21T03:16:26.680Z,6.33
2017-06-21T03:18:55.083Z,5.27
2017-06-21T03:21:24.235Z,6.03
2017-06-21T03:23:52.640Z,4.97
2017-06-21T03:26:21.042Z,6.77
2017-06-21T03:28:50.197Z,5.07
2017-06-21T03:31:18.625Z,5.97
2017-06-21T03:33:47.022Z,6.03
2017-06-21T03:36:15.408Z,5.53
2017-06-21T03:38:43.829Z,5.80
2017-06-21T03:41:12.210Z,5.73
2017-06-21T03:43:40.618Z,5.00
2017-06-21T03:46:09.009Z,5.93
2017-06-21T03:48:38.277Z,6.70
2017-06-21T03:51:06.893Z,6.30
2017-06-21T03:53:35.331Z,5.00
2017-06-21T03:56:03.736Z,5.67
2017-06-21T03:58:32.117Z,5.63
2017-06-21T04:01:00.513Z,6.07
2017-06-21T04:03:28.923Z,5.97
2017-06-21T04:05:57.312Z,5.93
2017-06-21T04:08:25.714Z,5.50
2017-06-21T04:10:54.869Z,6.40
2017-06-21T04:13:23.319Z,6.40
2017-06-21T04:15:51.723Z,6.40
2017-06-21T04:18:20.211Z,6.40
2017-06-21T04:20:48.608Z,5.90
2017-06-21T04:23:17.013Z,7.30
2017-06-21T04:25:45.478Z,6.90
2017-06-21T04:28:14.698Z,6.87
2017-06-21T04:30:43.107Z,7.17
2017-06-21T04:33:11.529Z,8.10
2017-06-21T04:35:40.697Z,6.60
2017-06-21T04:38:09.110Z,6.87
2017-06-21T04:40:38.283Z,6.80
2017-06-21T04:43:06.675Z,6.80
2017-06-21T04:45:35.094Z,6.70
2017-06-21T04:48:03.481Z,7.93
2017-06-21T04:50:31.885Z,7.20
2017-06-21T04:53:00.289Z,6.37
2017-06-21T04:55:29.461Z,6.43
2017-06-21T04:57:57.877Z,7.10
2017-06-21T05:00:26.287Z,6.70
2017-06-21T05:02:54.673Z,6.80
2017-06-21T05:05:23.075Z,6.70
2017-06-21T05:07:51.489Z,8.03
2017-06-21T05:10:19.909Z,7.47
2017-06-21T05:12:48.319Z,7.00
2017-06-21T05:15:16.723Z,7.50
2017-06-21T05:17:45.892Z,6.60
2017-06-21T05:20:14.282Z,7.90
2017-06-21T05:22:42.687Z,7.53
2017-06-21T05:25:11.062Z,7.03
2017-06-21T05:27:39.460Z,6.77
2017-06-21T05:30:07.880Z,8.03
2017-06-21T05:32:36.287Z,8.13
2017-06-21T05:35:05.455Z,7.77
2017-06-21T05:37:33.849Z,7.67
2017-06-21T05:40:02.312Z,6.97
2017-06-21T05:42:30.688Z,8.70
2017-06-21T05:44:59.092Z,6.50
2017-06-21T05:47:28.250Z,7.67
2017-06-21T05:49:56.651Z,7.30
2017-06-21T05:52:25.050Z,8.27
2017-06-21T05:54:53.490Z,8.10
2017-06-21T05:57:21.879Z,9.90
2017-06-21T05:59:50.301Z,8.90
2017-06-21T06:02:18.688Z,6.97
2017-06-21T06:04:47.062Z,7.27
2017-06-21T06:07:15.469Z,7.70
2017-06-21T06:09:43.859Z,7.57
2017-06-21T06:12:12.262Z,9.70
2017-06-21T06:14:40.666Z,8.60
2017-06-21T06:17:09.058Z,8.53
2017-06-21T06:19:37.461Z,8.77
2017-06-21T06:22:05.858Z,8.00
2017-06-21T06:24:34.263Z,9.17
2017-06-21T06:27:02.673Z,8.20
2017-06-21T06:29:31.049Z,8.43
2017-06-21T06:31:59.482Z,8.67
2017-06-21T06:34:27.889Z,8.70
2017-06-21T06:36:56.300Z,8.80
2017-06-21T06:39:24.828Z,8.67
2017-06-21T06:41:53.222Z,8.97
2017-06-21T06:44:22.400Z,9.10
2017-06-21T06:46:50.795Z,8.77
2017-06-21T06:49:19.186Z,9.03
2017-06-21T06:51:48.357Z,8.80
2017-06-21T06:54:16.744Z,10.00
2017-06-21T06:56:45.149Z,9.23
2017-06-21T06:59:13.564Z,11.20
2017-06-21T07:01:41.963Z,9.50
2017-06-21T07:04:10.372Z,9.03
2017-06-21T07:06:38.762Z,8.57
2017-06-21T07:09:07.170Z,9.10
2017-06-21T07:11:35.690Z,9.87
2017-06-21T07:14:03.961Z,10.90
2017-06-21T07:16:32.364Z,10.57
2017-06-21T07:19:01.522Z,10.07
2017-06-21T07:21:29.938Z,8.60
2017-06-21T07:23:59.094Z,10.10
2017-06-21T07:26:27.477Z,9.33
2017-06-21T07:28:55.891Z,9.10
2017-06-21T07:31:25.067Z,10.10
2017-06-21T07:33:53.494Z,10.37
2017-06-21T07:36:21.897Z,10.10
2017-06-21T07:38:50.300Z,11.07
2017-06-21T07:41:18.749Z,8.70
2017-06-21T07:43:47.141Z,10.97
2017-06-21T07:46:15.558Z,8.80
2017-06-21T07:48:44.712Z,9.63
2017-06-21T07:51:13.126Z,9.97
2017-06-21T07:53:42.331Z,8.50
2017-06-21T07:56:11.487Z,10.73
2017-06-21T07:58:39.904Z,10.97
2017-06-21T08:01:09.074Z,9.83
2017-06-21T08:03:37.480Z,10.30
2017-06-21T08:06:06.646Z,9.27
2017-06-21T08:08:35.036Z,9.70
2017-06-21T08:11:03.450Z,9.40
2017-06-21T08:13:31.829Z,9.23
2017-06-21T08:16:00.222Z,9.83
2017-06-21T08:18:28.627Z,9.80
2017-06-21T08:20:57.042Z,10.00
2017-06-21T08:23:26.241Z,10.33
2017-06-21T08:25:55.480Z,9.93
2017-06-21T08:28:23.878Z,10.77
2017-06-21T08:30:52.295Z,11.60
2017-06-21T08:33:21.466Z,10.27
2017-06-21T08:35:49.869Z,9.17
2017-06-21T08:38:19.038Z,10.97
2017-06-21T08:40:47.442Z,8.70
2017-06-21T08:43:16.637Z,8.30
2017-06-21T08:45:45.806Z,9.47
2017-06-21T08:48:14.246Z,9.40
2017-06-21T08:50:42.628Z,9.07
2017-06-21T08:53:11.025Z,10.87
2017-06-21T08:55:39.429Z,11.40
2017-06-21T08:58:07.818Z,10.40
2017-06-21T09:00:36.241Z,10.27
2017-06-21T09:03:04.630Z,9.57
2017-06-21T09:05:33.033Z,11.10
2017-06-21T09:08:01.420Z,10.13
2017-06-21T09:10:29.810Z,9.63
2017-06-21T09:12:58.238Z,10.53
2017-06-21T09:15:26.636Z,9.73
2017-06-21T09:17:55.024Z,10.37
2017-06-21T09:20:23.578Z,10.20
2017-06-21T09:22:51.980Z,10.37
2017-06-21T09:25:20.439Z,11.30
2017-06-21T09:27:48.833Z,12.93
2017-06-21T09:30:17.223Z,10.63
2017-06-21T09:32:45.628Z,10.53
2017-06-21T09:35:14.799Z,10.70
2017-06-21T09:37:43.218Z,11.40
2017-06-21T09:40:11.635Z,9.40
2017-06-21T09:42:40.026Z,10.30
2017-06-21T09:45:08.429Z,9.63
2017-06-21T09:47:36.827Z,8.93
2017-06-21T09:50:05.240Z,9.07
2017-06-21T09:52:33.641Z,8.77
2017-06-21T09:55:02.046Z,8.83
2017-06-21T09:57:30.438Z,10.80
2017-06-21T09:59:58.840Z,9.30
2017-06-21T10:02:27.252Z,10.00
2017-06-21T10:04:55.470Z,8.37
2017-06-21T10:07:24.637Z,9.67
2017-06-21T10:09:53.043Z,10.20
2017-06-21T10:12:21.429Z,7.50
2017-06-21T10:14:49.858Z,6.73
2017-06-21T10:17:18.255Z,9.37
2017-06-21T10:19:46.652Z,7.60
2017-06-21T10:22:15.077Z,9.30
2017-06-21T10:24:43.482Z,7.27
2017-06-21T10:27:11.885Z,6.80
2017-06-21T10:29:41.054Z,8.80
2017-06-21T10:32:09.438Z,6.63
2017-06-21T10:34:37.847Z,7.73
2017-06-21T10:37:06.237Z,7.43
2017-06-21T10:39:34.671Z,9.00
2017-06-21T10:42:03.063Z,7.30
2017-06-21T10:44:32.214Z,7.97
2017-06-21T10:47:00.619Z,7.53
2017-06-21T10:49:29.007Z,7.10
2017-06-21T10:51:57.406Z,7.73
2017-06-21T10:54:25.785Z,7.97
2017-06-21T10:56:54.965Z,7.30
2017-06-21T10:59:23.361Z,7.00
2017-06-21T11:01:51.764Z,7.57
2017-06-21T11:04:20.168Z,7.37
2017-06-21T11:06:48.560Z,7.73
2017-06-21T11:09:16.949Z,5.83
2017-06-21T11:11:46.151Z,7.33
2017-06-21T11:14:14.608Z,7.27
2017-06-21T11:16:43.018Z,7.30
2017-06-21T11:19:12.202Z,8.03
2017-06-21T11:21:40.591Z,7.93
2017-06-21T11:24:08.995Z,6.83
2017-06-21T11:26:37.489Z,7.87
2017-06-21T11:29:05.899Z,7.00
2017-06-21T11:31:34.297Z,8.43
2017-06-21T11:34:03.466Z,7.97
2017-06-21T11:36:32.709Z,7.30
2017-06-21T11:39:01.139Z,6.60
2017-06-21T11:41:29.564Z,8.10
2017-06-21T11:43:57.996Z,7.70
2017-06-21T11:46:26.386Z,8.10
2017-06-21T11:48:54.793Z,8.50
2017-06-21T11:51:23.944Z,7.40
2017-06-21T11:53:52.333Z,8.43
2017-06-21T11:56:20.739Z,7.70
2017-06-21T11:58:49.909Z,8.53
2017-06-21T12:01:18.326Z,6.13
2017-06-21T12:03:47.479Z,6.97
2017-06-21T12:06:15.855Z,6.30
2017-06-21T12:08:44.274Z,6.83
2017-06-21T12:11:12.672Z,7.10
2017-06-21T12:13:41.096Z,7.43
2017-06-21T12:16:09.503Z,6.60
2017-06-21T12:18:38.731Z,8.53
2017-06-21T12:21:07.136Z,7.10
2017-06-21T12:23:35.525Z,7.10
2017-06-21T12:26:03.942Z,6.47
2017-06-21T12:28:32.362Z,7.33
2017-06-21T12:31:00.767Z,7.40
2017-06-21T12:33:29.214Z,7.07
2017-06-21T12:35:57.704Z,7.80
2017-06-21T12:38:26.158Z,6.77
2017-06-21T12:40:54.532Z,6.37
2017-06-21T12:43:22.950Z,7.73
2017-06-21T12:45:51.430Z,7.90
2017-06-21T12:48:19.823Z,7.37
2017-06-21T12:50:48.370Z,8.30
2017-06-21T12:53:16.758Z,8.20
2017-06-21T12:55:45.166Z,7.50
2017-06-21T12:58:13.570Z,8.60
2017-06-21T13:00:41.961Z,6.40
2017-06-21T13:03:10.516Z,7.03
2017-06-21T13:05:39.685Z,7.47
2017-06-21T13:08:08.086Z,7.00
2017-06-21T13:10:36.491Z,7.43
2017-06-21T13:13:04.879Z,7.07
2017-06-21T13:15:33.293Z,10.20
2017-06-21T13:18:01.689Z,7.63
2017-06-21T13:20:30.077Z,7.97
2017-06-21T13:22:58.465Z,7.90
2017-06-21T13:25:27.629Z,7.77
2017-06-21T13:27:56.282Z,7.37
2017-06-21T13:30:24.680Z,7.90
2017-06-21T13:32:53.072Z,8.50
2017-06-21T13:35:21.492Z,6.33
2017-06-21T13:37:50.645Z,8.80
2017-06-21T13:40:19.061Z,6.97
2017-06-21T13:42:47.469Z,8.63
2017-06-21T13:45:15.847Z,8.73
2017-06-21T13:47:44.248Z,7.40
2017-06-21T13:50:12.654Z,7.90
2017-06-21T13:52:41.072Z,7.40
2017-06-21T13:55:09.461Z,7.00
2017-06-21T13:57:37.852Z,7.70
2017-06-21T14:00:06.270Z,7.70
2017-06-21T14:02:34.660Z,9.23
2017-06-21T14:05:03.847Z,8.77
2017-06-21T14:07:32.249Z,8.27
2017-06-21T14:10:00.638Z,7.60
2017-06-21T14:12:29.051Z,7.93
2017-06-21T14:14:57.446Z,7.63
2017-06-21T14:17:25.853Z,7.13
2017-06-21T14:19:55.052Z,7.23
2017-06-21T14:22:24.222Z,7.23
2017-06-21T14:24:52.627Z,7.30
2017-06-21T14:27:21.774Z,7.30
2017-06-21T14:29:50.184Z,7.60
2017-06-21T14:32:19.339Z,7.50
2017-06-21T14:34:47.746Z,7.70
2017-06-21T14:37:16.166Z,8.33
2017-06-21T14:39:44.584Z,6.93
2017-06-21T14:42:13.003Z,7.43
2017-06-21T14:44:41.979Z,7.70
2017-06-21T14:47:10.364Z,8.00
2017-06-21T14:49:39.553Z,6.10
2017-06-21T14:52:07.747Z,8.00
2017-06-21T14:54:36.916Z,6.70
2017-06-21T14:57:05.358Z,6.63
2017-06-21T14:59:33.753Z,6.63
2017-06-21T15:02:02.156Z,5.90
2017-06-21T15:04:30.591Z,6.07
2017-06-21T15:06:59.171Z,7.23
2017-06-21T15:09:27.569Z,7.17
2017-06-21T15:11:55.975Z,6.60
2017-06-21T15:14:24.403Z,7.60
2017-06-21T15:16:52.794Z,6.20
2017-06-21T15:19:21.212Z,7.80
2017-06-21T15:21:49.617Z,6.77
2017-06-21T15:24:18.021Z,7.03
2017-06-21T15:26:46.449Z,8.57
2017-06-21T15:29:14.845Z,6.60
2017-06-21T15:31:44.017Z,7.30
2017-06-21T15:34:12.416Z,7.43
2017-06-21T15:36:41.559Z,7.37
2017-06-21T15:39:09.948Z,7.53
2017-06-21T15:41:38.331Z,7.10
2017-06-21T15:44:06.740Z,7.60
2017-06-21T15:46:35.760Z,7.00
2017-06-21T15:49:04.149Z,7.23
2017-06-21T15:51:32.543Z,7.90
2017-06-21T15:54:00.953Z,7.03
2017-06-21T15:56:29.182Z,6.70
2017-06-21T15:58:57.611Z,7.43
2017-06-21T16:01:26.771Z,7.40
2017-06-21T16:03:55.179Z,6.60
2017-06-21T16:06:24.346Z,7.60
2017-06-21T16:08:53.052Z,7.10
2017-06-21T16:11:21.483Z,6.23
2017-06-21T16:13:49.903Z,7.97
2017-06-21T16:16:18.294Z,8.13
2017-06-21T16:18:46.682Z,7.20
2017-06-21T16:21:15.849Z,7.20
2017-06-21T16:23:44.242Z,7.60
2017-06-21T16:26:12.645Z,6.80
2017-06-21T16:28:41.801Z,7.50
2017-06-21T16:31:10.177Z,7.20
2017-06-21T16:33:38.609Z,7.17
2017-06-21T16:36:07.000Z,7.43
2017-06-21T16:38:35.419Z,6.90
2017-06-21T16:41:03.825Z,7.93
2017-06-21T16:43:32.975Z,6.53
2017-06-21T16:46:01.382Z,6.70
2017-06-21T16:48:29.786Z,6.90
2017-06-21T16:50:58.949Z,7.53
2017-06-21T16:53:27.359Z,6.77
2017-06-21T16:55:55.747Z,7.20
2017-06-21T16:58:24.167Z,7.50
2017-06-21T17:00:52.558Z,6.60
2017-06-21T17:03:20.945Z,7.90
2017-06-21T17:05:49.338Z,7.53
2017-06-21T17:08:18.507Z,7.17
2017-06-21T17:10:46.933Z,7.23
2017-06-21T17:13:15.442Z,7.33
2017-06-21T17:15:43.869Z,6.80
2017-06-21T17:18:12.266Z,6.47
2017-06-21T17:20:40.660Z,6.77
2017-06-21T17:23:09.090Z,7.60
2017-06-21T17:25:37.485Z,6.70
2017-06-21T17:28:06.744Z,6.43
2017-06-21T17:30:35.162Z,6.77
2017-06-21T17:33:03.552Z,7.37
2017-06-21T17:35:32.737Z,6.83
2017-06-21T17:38:01.916Z,6.47
2017-06-21T17:40:30.462Z,6.10
2017-06-21T17:42:58.869Z,7.50
2017-06-21T17:45:27.362Z,7.73
2017-06-21T17:47:55.781Z,7.40
2017-06-21T17:50:24.186Z,7.03
2017-06-21T17:52:52.647Z,6.47
2017-06-21T17:55:24.069Z,7.00
2017-06-21T17:57:53.236Z,7.33
2017-06-21T18:00:21.485Z,7.60
2017-06-21T18:02:49.895Z,6.67
2017-06-21T18:05:18.301Z,6.77
2017-06-21T18:07:47.469Z,6.70
2017-06-21T18:10:15.888Z,6.90
2017-06-21T18:12:44.340Z,6.60
2017-06-21T18:15:12.730Z,7.40
2017-06-21T18:17:41.134Z,7.33
2017-06-21T18:20:09.530Z,6.90
2017-06-21T18:22:37.936Z,7.07
2017-06-21T18:25:06.374Z,7.00
2017-06-21T18:27:34.765Z,7.60
2017-06-21T18:30:03.170Z,6.47
2017-06-21T18:32:31.572Z,5.57
2017-06-21T18:35:00.722Z,6.70
2017-06-21T18:37:29.146Z,6.43
2017-06-21T18:39:58.300Z,7.00
2017-06-21T18:42:26.700Z,6.50
2017-06-21T18:44:55.134Z,6.50
2017-06-21T18:47:23.628Z,6.37
2017-06-21T18:49:52.037Z,6.80
2017-06-21T18:52:20.563Z,11.53
2017-06-21T18:54:48.966Z,7.13
2017-06-21T18:57:17.360Z,6.23
2017-06-21T18:59:45.816Z,5.83
2017-06-21T19:02:14.280Z,6.23
2017-06-21T19:04:42.677Z,5.90
2017-06-21T19:07:11.080Z,6.60
2017-06-21T19:09:41.133Z,7.30
2017-06-21T19:12:10.537Z,5.93
2017-06-21T19:14:39.347Z,6.03
2017-06-21T19:17:08.246Z,6.73
2017-06-21T19:19:36.640Z,6.57
2017-06-21T19:22:05.453Z,6.33
2017-06-21T19:24:34.103Z,6.93
2017-06-21T19:27:02.858Z,6.40
2017-06-21T19:29:31.692Z,6.90
2017-06-21T19:32:00.426Z,5.70
2017-06-21T19:34:29.250Z,6.30
2017-06-21T19:36:58.320Z,6.30
2017-06-21T19:39:27.230Z,7.00
2017-06-21T19:41:56.068Z,5.43
2017-06-21T19:44:24.672Z,6.60
2017-06-21T19:46:54.377Z,6.03
2017-06-21T19:49:22.781Z,6.57
2017-06-21T19:51:51.280Z,6.57
2017-06-21T19:54:19.799Z,6.47
2017-06-21T19:56:49.023Z,6.00
2017-06-21T19:59:17.828Z,6.07
2017-06-21T20:01:46.862Z,5.93
2017-06-21T20:04:15.659Z,6.90
2017-06-21T20:06:44.866Z,6.90
2017-06-21T20:09:14.245Z,7.03
2017-06-21T20:11:42.804Z,7.20
2017-06-21T20:14:11.219Z,7.37
2017-06-21T20:16:40.648Z,7.57
2017-06-21T20:19:09.356Z,7.10
2017-06-21T20:21:39.049Z,9.53
2017-06-21T20:24:07.836Z,9.73
2017-06-21T20:26:37.816Z,9.47
2017-06-21T20:29:06.640Z,10.07
2017-06-21T20:31:35.860Z,9.53
2017-06-21T20:34:04.753Z,9.47
2017-06-21T20:36:33.162Z,9.97
2017-06-21T20:39:01.562Z,10.00
2017-06-21T20:41:29.986Z,15.63
2017-06-21T20:43:58.393Z,12.30
2017-06-21T20:46:26.915Z,13.60
2017-06-21T20:48:55.988Z,12.27
2017-06-21T20:51:24.408Z,12.83
2017-06-21T20:53:52.939Z,12.63
2017-06-21T20:56:22.319Z,11.27
2017-06-21T20:58:50.738Z,11.73
2017-06-21T21:01:19.141Z,12.60
2017-06-21T21:03:47.545Z,12.10
2017-06-21T21:06:16.021Z,12.10
2017-06-21T21:08:44.458Z,10.77
2017-06-21T21:11:12.878Z,10.20
2017-06-21T21:13:41.292Z,11.40
2017-06-21T21:16:09.729Z,12.87
2017-06-21T21:18:38.150Z,11.33
2017-06-21T21:21:06.569Z,8.97
2017-06-21T21:23:35.769Z,9.33
2017-06-21T21:26:04.181Z,9.90
2017-06-21T21:28:32.681Z,10.07
2017-06-21T21:31:01.223Z,11.03
2017-06-21T21:33:29.612Z,11.93
2017-06-21T21:35:58.103Z,10.97
2017-06-21T21:38:26.592Z,10.57
2017-06-21T21:40:55.101Z,11.87
2017-06-21T21:43:23.684Z,13.40
2017-06-21T21:45:52.173Z,12.70
2017-06-21T21:48:20.618Z,11.50
2017-06-21T21:50:49.188Z,10.83
2017-06-21T21:53:17.594Z,11.23
2017-06-21T21:55:46.005Z,11.63
2017-06-21T21:58:14.427Z,11.20
2017-06-21T22:00:42.866Z,11.27
2017-06-21T22:03:11.401Z,12.40
2017-06-21T22:05:39.806Z,10.23
2017-06-21T22:08:08.216Z,11.33
2017-06-21T22:10:36.618Z,11.00
2017-06-21T22:13:05.047Z,10.20
2017-06-21T22:15:33.441Z,10.67
2017-06-21T22:18:02.607Z,10.43
2017-06-21T22:20:31.025Z,10.40
2017-06-21T22:22:59.430Z,10.80
2017-06-21T22:25:27.856Z,11.23
2017-06-21T22:27:56.258Z,10.67
2017-06-21T22:30:25.414Z,10.70
2017-06-21T22:32:53.821Z,11.13
2017-06-21T22:35:22.232Z,10.60
2017-06-21T22:37:50.646Z,10.00
2017-06-21T22:40:19.033Z,10.30
2017-06-21T22:42:47.425Z,11.37
2017-06-21T22:45:15.843Z,9.33
2017-06-21T22:47:44.244Z,9.70
2017-06-21T22:50:12.652Z,10.93
2017-06-21T22:52:41.050Z,9.70
2017-06-21T22:55:09.457Z,10.30
2017-06-21T22:57:37.868Z,12.70
2017-06-21T23:00:06.259Z,11.10
2017-06-21T23:02:34.683Z,10.03
2017-06-21T23:05:03.089Z,10.33
2017-06-21T23:07:31.506Z,11.20
2017-06-21T23:09:59.904Z,9.40
2017-06-21T23:12:29.059Z,10.30
2017-06-21T23:14:57.485Z,10.20
2017-06-21T23:17:26.638Z,11.30
2017-06-21T23:19:55.013Z,11.37
2017-06-21T23:22:23.411Z,11.23
2017-06-21T23:24:51.821Z,11.00
2017-06-21T23:27:20.226Z,10.80
2017-06-21T23:29:48.616Z,12.23
2017-06-21T23:32:17.028Z,9.20
2017-06-21T23:34:45.437Z,10.40
2017-06-21T23:37:13.831Z,11.10
2017-06-21T23:39:42.279Z,10.00
2017-06-21T23:42:10.682Z,10.70
2017-06-21T23:44:39.072Z,10.77
2017-06-21T23:47:07.474Z,9.80
2017-06-21T23:49:35.867Z,9.83
2017-06-21T23:52:04.255Z,10.30
2017-06-21T23:54:32.666Z,11.53
2017-06-21T23:57:01.077Z,11.63
2017-06-21T23:59:29.482Z,10.70
